Time;durP1;ratioP1;P1;durP2;ratioP2;P2;SDS_P1;SDS_P2;PMS_P1;PMS_P2;Temp;Humidity;BMP_temperature;BMP_pressure;BME280_temperature;BME280_humidity;BME280_pressure;Samples;Min_cycle;Max_cycle;Signal;HPM_P1;HPM_P2
2021/12/08 00:00:11;;;;;;;;;;;;;;;;;;5054657;28;19930;-65
2021/12/08 00:02:36;;;;;;;;;;;;;;;;;;5069543;28;19911;-66
2021/12/08 00:05:02;;;;;;;;;;;;;;;;;;5047030;28;19905;-67
2021/12/08 00:07:28;;;;;;;;;;;;;;;;;;5040706;28;19916;-66
2021/12/08 00:13:06;;;;;;;;;;;;;;;;;;5042797;28;19905;-65
2021/12/08 00:15:32;;;;;;;;;;;;;;;;;;4692075;28;10001186;-65
2021/12/08 00:17:58;;;;;;;;;;;;;;;;;;5034046;28;20291;-65
2021/12/08 00:20:26;;;;;;;;;;;;;;;;;;5032684;28;19948;-65
2021/12/08 00:22:52;;;;;;;;;;;;;;;;;;5056784;28;19948;-65
2021/12/08 00:25:18;;;;;;;;;;;;;;;;;;5033092;28;20408;-65
2021/12/08 00:27:44;;;;;;;;;;;;;;;;;;5063335;28;19917;-66
2021/12/08 00:30:10;;;;;;;;;;;;;;;;;;5048339;28;19912;-65
2021/12/08 00:32:36;;;;;;;;;;;;;;;;;;5029770;28;19909;-66
2021/12/08 00:35:02;;;;;;;;;;;;;;;;;;5061669;23;19911;-64
2021/12/08 00:37:28;;;;;;;;;;;;;;;;;;5065473;28;19916;-65
2021/12/08 00:39:54;;;;;;;;;;;;;;;;;;5049795;28;19908;-65
2021/12/08 00:42:20;;;;;;;;;;;;;;;;;;5051278;28;19912;-65
2021/12/08 00:44:46;;;;;;;;;;;;;;;;;;5049337;28;20287;-65
2021/12/08 00:47:12;;;;;;;;;;;;;;;;;;5052671;28;19919;-65
2021/12/08 00:49:39;;;;;;;;;;;;;;;;;;5051618;28;20390;-65
2021/12/08 00:52:05;;;;;;;;;;;;;;;;;;5052461;28;20554;-65
2021/12/08 00:54:31;;;;;;;;;;;;;;;;;;5051986;28;19909;-65
2021/12/08 00:56:57;;;;;;;;;;;;;;;;;;5050479;28;19908;-65
2021/12/08 00:59:23;;;;;;;;;;;;;;;;;;5051428;28;19956;-64
2021/12/08 01:01:49;;;;;;;;;;;;;;;;;;5051185;28;19909;-65
2021/12/08 01:04:15;;;;;;;;;;;;;;;;;;5050094;28;19905;-65
2021/12/08 01:06:41;;;;;;;;;;;;;;;;;;5050475;28;20335;-65
2021/12/08 01:09:07;;;;;;;;;;;;;;;;;;5051649;28;19909;-65
2021/12/08 01:11:33;;;;;;;;;;;;;;;;;;5051103;28;19960;-65
2021/12/08 01:13:59;;;;;;;;;;;;;;;;;;5067094;28;20069;-65
2021/12/08 01:16:25;;;;;;;;;;;;;;;;;;5067678;28;19908;-65
2021/12/08 01:18:51;;;;;;;;;;;;;;;;;;5051651;28;19909;-64
2021/12/08 01:21:18;;;;;;;;;;;;;;;;;;5052252;28;19904;-65
2021/12/08 01:23:43;;;;;;;;;;;;;;;;;;5051403;28;19909;-64
2021/12/08 01:26:09;;;;;;;;;;;;;;;;;;5052070;28;19913;-65
2021/12/08 01:28:35;;;;;;;;;;;;;;;;;;5066981;28;20011;-65
2021/12/08 01:31:01;;;;;;;;;;;;;;;;;;5052172;28;19990;-65
2021/12/08 01:33:30;;;;;;;;;;;;;;;;;;5066614;28;19908;-65
2021/12/08 01:35:56;;;;;;;;;;;;;;;;;;5064548;28;19927;-65
2021/12/08 01:38:22;;;;;;;;;;;;;;;;;;5050063;28;19908;-65
2021/12/08 01:40:47;;;;;;;;;;;;;;;;;;5052110;28;19905;-65
2021/12/08 01:43:24;;;;;;;;;;;;;;;;;;5066469;28;19916;-65
2021/12/08 01:45:56;;;;;;;;;;;;;;;;;;5067362;28;20284;-65
2021/12/08 01:48:22;;;;;;;;;;;;;;;;;;5051356;28;19923;-65
2021/12/08 01:50:48;;;;;;;;;;;;;;;;;;5052041;28;19905;-65
2021/12/08 01:53:14;;;;;;;;;;;;;;;;;;5049529;28;19909;-64
2021/12/08 01:55:40;;;;;;;;;;;;;;;;;;5051679;28;20288;-65
2021/12/08 01:58:06;;;;;;;;;;;;;;;;;;5051235;28;19951;-64
2021/12/08 02:00:32;;;;;;;;;;;;;;;;;;5052160;28;20364;-65
2021/12/08 02:02:58;;;;;;;;;;;;;;;;;;5066371;28;19947;-65
2021/12/08 02:05:23;;;;;;;;;;;;;;;;;;5051178;28;20401;-65
2021/12/08 02:07:50;;;;;;;;;;;;;;;;;;5051621;28;19920;-64
2021/12/08 02:10:16;;;;;;;;;;;;;;;;;;5055438;28;19995;-65
2021/12/08 02:12:42;;;;;;;;;;;;;;;;;;5055373;28;19936;-64
2021/12/08 02:15:08;;;;;;;;;;;;;;;;;;5069960;28;20360;-65
2021/12/08 02:17:34;;;;;;;;;;;;;;;;;;5070816;28;19912;-64
2021/12/08 02:20:00;;;;;;;;;;;;;;;;;;5069881;28;19908;-65
2021/12/08 02:22:25;;;;;;;;;;;;;;;;;;5054481;28;20339;-65
2021/12/08 02:24:51;;;;;;;;;;;;;;;;;;5068644;28;20024;-66
2021/12/08 02:27:17;;;;;;;;;;;;;;;;;;5070546;28;19909;-64
2021/12/08 02:29:53;;;;;;;;;;;;;;;;;;5054907;28;19909;-65
2021/12/08 02:48:28;;;;;;;;;;;;;;;;;;5053528;28;20337;-65
2021/12/08 02:50:53;;;;;;;;;;;;;;;;;;5053894;28;19944;-65
2021/12/08 02:53:19;;;;;;;;;;;;;;;;;;5052463;28;19913;-65
2021/12/08 02:55:45;;;;;;;;;;;;;;;;;;5054608;28;19928;-65
2021/12/08 02:58:11;;;;;;;;;;;;;;;;;;5053933;28;20395;-64
2021/12/08 03:00:37;;;;;;;;;;;;;;;;;;5069106;28;19913;-65
2021/12/08 03:03:03;;;;;;;;;;;;;;;;;;5054237;28;20265;-65
2021/12/08 03:05:29;;;;;;;;;;;;;;;;;;5053716;28;19963;-65
2021/12/08 03:07:55;;;;;;;;;;;;;;;;;;5053518;28;19946;-65
2021/12/08 03:10:21;;;;;;;;;;;;;;;;;;5048445;28;19915;-65
2021/12/08 03:12:47;;;;;;;;;;;;;;;;;;5053895;28;19913;-65
2021/12/08 03:15:12;;;;;;;;;;;;;;;;;;5054183;28;19957;-65
2021/12/08 03:17:38;;;;;;;;;;;;;;;;;;5053869;28;20280;-65
2021/12/08 03:20:06;;;;;;;;;;;;;;;;;;5052144;28;19951;-65
2021/12/08 03:22:33;;;;;;;;;;;;;;;;;;5052181;28;19905;-65
2021/12/08 03:25:01;;;;;;;;;;;;;;;;;;5053165;28;19913;-65
2021/12/08 03:27:34;;;;;;;;;;;;;;;;;;5053172;28;19909;-65
2021/12/08 03:30:13;;;;;;;;;;;;;;;;;;5057872;28;20319;-66
2021/12/08 03:32:39;;;;;;;;;;;;;;;;;;5037263;28;19920;-65
2021/12/08 03:35:05;;;;;;;;;;;;;;;;;;5052135;28;19913;-65
2021/12/08 03:37:32;;;;;;;;;;;;;;;;;;5068591;28;20003;-66
2021/12/08 03:39:58;;;;;;;;;;;;;;;;;;5055424;28;19909;-65
2021/12/08 03:42:24;;;;;;;;;;;;;;;;;;5053485;28;19911;-66
2021/12/08 03:44:51;;;;;;;;;;;;;;;;;;5066389;28;19962;-66
2021/12/08 03:47:18;;;;;;;;;;;;;;;;;;5053600;28;19913;-66
2021/12/08 03:49:44;;;;;;;;;;;;;;;;;;5067485;28;19912;-65
2021/12/08 03:52:10;;;;;;;;;;;;;;;;;;5068767;28;19953;-65
2021/12/08 03:54:36;;;;;;;;;;;;;;;;;;5052429;28;20284;-65
2021/12/08 03:57:02;;;;;;;;;;;;;;;;;;5052212;28;20363;-65
2021/12/08 03:59:28;;;;;;;;;;;;;;;;;;5052645;28;19904;-65
2021/12/08 04:01:54;;;;;;;;;;;;;;;;;;5067044;28;20188;-65
2021/12/08 04:04:25;;;;;;;;;;;;;;;;;;5068048;28;19908;-65
2021/12/08 04:06:52;;;;;;;;;;;;;;;;;;5053425;28;19912;-65
2021/12/08 04:09:41;;;;;;;;;;;;;;;;;;5066445;28;19912;-65
2021/12/08 04:12:04;;;;;;;;;;;;;;;;;;5053642;28;20380;-65
2021/12/08 04:14:30;;;;;;;;;;;;;;;;;;5068750;28;19911;-66
2021/12/08 04:16:56;;;;;;;;;;;;;;;;;;5054097;28;19908;-66
2021/12/08 04:19:22;;;;;;;;;;;;;;;;;;5067775;28;20482;-66
2021/12/08 04:21:48;;;;;;;;;;;;;;;;;;5052968;28;19927;-65
2021/12/08 04:24:13;;;;;;;;;;;;;;;;;;5038091;28;20369;-65
2021/12/08 04:26:39;;;;;;;;;;;;;;;;;;5064906;28;19923;-65
2021/12/08 04:29:05;;;;;;;;;;;;;;;;;;5052196;28;19932;-65
2021/12/08 04:31:31;;;;;;;;;;;;;;;;;;5067943;28;19909;-65
2021/12/08 04:34:00;;;;;;;;;;;;;;;;;;5067157;28;19904;-63
2021/12/08 04:36:26;;;;;;;;;;;;;;;;;;5052500;28;19920;-63
2021/12/08 04:38:56;;;;;;;;;;;;;;;;;;5051440;28;19908;-66
2021/12/08 04:41:27;;;;;;;;;;;;;;;;;;5068107;28;19911;-64
2021/12/08 04:46:31;;;;;;;;;;;;;;;;;;5052765;28;20345;-64
2021/12/08 05:05:38;;;;;;;;;;;;;;;;;;5048418;28;20326;-64
2021/12/08 05:08:14;;;;;;;;;;;;;;;;;;5056118;28;19912;-64
2021/12/08 05:10:40;;;;;;;;;;;;;;;;;;5051087;28;19909;-64
2021/12/08 05:13:06;;;;;;;;;;;;;;;;;;5051554;28;19953;-66
2021/12/08 05:15:32;;;;;;;;;;;;;;;;;;5067480;28;19904;-64
2021/12/08 05:17:58;;;;;;;;;;;;;;;;;;5051823;28;19908;-64
2021/12/08 05:20:25;;;;;;;;;;;;;;;;;;5050085;28;19915;-64
2021/12/08 05:22:51;;;;;;;;;;;;;;;;;;5067531;28;19905;-64
2021/12/08 05:25:17;;;;;;;;;;;;;;;;;;5066724;28;20007;-65
2021/12/08 05:27:44;;;;;;;;;;;;;;;;;;5067610;28;19915;-66
2021/12/08 05:30:10;;;;;;;;;;;;;;;;;;5044776;28;19932;-63
2021/12/08 05:32:36;;;;;;;;;;;;;;;;;;5032013;28;19905;-66
2021/12/08 05:35:02;;;;;;;;;;;;;;;;;;5048444;28;20356;-64
2021/12/08 05:37:28;;;;;;;;;;;;;;;;;;5051165;28;19908;-64
2021/12/08 05:39:53;;;;;;;;;;;;;;;;;;5066791;28;19909;-63
2021/12/08 05:42:19;;;;;;;;;;;;;;;;;;5052790;28;19944;-64
2021/12/08 05:44:45;;;;;;;;;;;;;;;;;;5070498;28;20030;-64
2021/12/08 05:47:11;;;;;;;;;;;;;;;;;;5057245;28;20284;-64
2021/12/08 05:49:37;;;;;;;;;;;;;;;;;;5054319;28;20423;-64
2021/12/08 05:52:03;;;;;;;;;;;;;;;;;;5054725;28;19915;-64
2021/12/08 05:54:30;;;;;;;;;;;;;;;;;;5071410;28;20368;-64
2021/12/08 05:56:56;;;;;;;;;;;;;;;;;;5059350;28;19959;-65
2021/12/08 05:59:22;;;;;;;;;;;;;;;;;;5050985;28;20380;-63
2021/12/08 06:01:48;;;;;;;;;;;;;;;;;;5045009;28;19913;-64
2021/12/08 06:04:14;;;;;;;;;;;;;;;;;;5055471;28;19991;-64
2021/12/08 06:06:40;;;;;;;;;;;;;;;;;;5053436;28;20346;-64
2021/12/08 06:09:06;;;;;;;;;;;;;;;;;;5052718;28;20000;-65
2021/12/08 06:11:31;;;;;;;;;;;;;;;;;;5070611;28;19905;-64
2021/12/08 06:13:59;;;;;;;;;;;;;;;;;;5069677;28;19909;-64
2021/12/08 06:16:25;;;;;;;;;;;;;;;;;;5055094;28;20296;-64
2021/12/08 06:18:52;;;;;;;;;;;;;;;;;;5069732;28;19909;-65
2021/12/08 06:21:18;;;;;;;;;;;;;;;;;;5054302;28;19915;-65
2021/12/08 06:23:44;;;;;;;;;;;;;;;;;;5054151;28;20011;-64
2021/12/08 06:26:10;;;;;;;;;;;;;;;;;;5052684;28;19918;-64
2021/12/08 06:28:35;;;;;;;;;;;;;;;;;;5069511;28;19928;-65
2021/12/08 06:31:01;;;;;;;;;;;;;;;;;;5054658;28;19966;-66
2021/12/08 06:33:27;;;;;;;;;;;;;;;;;;5052392;28;20359;-64
2021/12/08 06:35:53;;;;;;;;;;;;;;;;;;5082583;22;19920;-66
2021/12/08 06:38:19;;;;;;;;;;;;;;;;;;5076029;28;19958;-65
2021/12/08 06:40:45;;;;;;;;;;;;;;;;;;5085956;28;19909;-66
2021/12/08 06:43:11;;;;;;;;;;;;;;;;;;5084823;28;19920;-66
2021/12/08 06:45:37;;;;;;;;;;;;;;;;;;5084684;28;20393;-65
2021/12/08 06:48:02;;;;;;;;;;;;;;;;;;5086830;28;19919;-67
2021/12/08 06:50:28;;;;;;;;;;;;;;;;;;5084566;28;19904;-65
2021/12/08 06:52:54;;;;;;;;;;;;;;;;;;5082805;28;19943;-66
2021/12/08 06:55:20;;;;;;;;;;;;;;;;;;5081872;28;19914;-67
2021/12/08 06:57:46;;;;;;;;;;;;;;;;;;5089313;28;20379;-66
2021/12/08 07:00:22;;;;;;;;;;;;;;;;;;5082037;28;19930;-66
2021/12/08 07:02:58;;;;;;;;;;;;;;;;;;5090360;28;19948;-67
2021/12/08 07:05:31;;;;;;;;;;;;;;;;;;5084855;28;19908;-66
2021/12/08 07:07:57;;;;;;;;;;;;;;;;;;5083683;28;19904;-67
2021/12/08 07:10:24;;;;;;;;;;;;;;;;;;5081364;28;19912;-67
2021/12/08 07:12:50;;;;;;;;;;;;;;;;;;5085897;28;19904;-66
2021/12/08 07:15:16;;;;;;;;;;;;;;;;;;5077410;28;19916;-65
2021/12/08 07:17:42;;;;;;;;;;;;;;;;;;5080984;28;20299;-66
2021/12/08 07:20:41;;;;;;;;;;;;;;;;;;5083176;28;19915;-66
2021/12/08 07:22:54;;;;;;;;;;;;;;;;;;5087609;28;19904;-66
2021/12/08 07:25:20;;;;;;;;;;;;;;;;;;5086673;28;19914;-67
2021/12/08 07:27:46;;;;;;;;;;;;;;;;;;5072538;28;19990;-67
2021/12/08 07:30:12;;;;;;;;;;;;;;;;;;5074681;28;19915;-67
2021/12/08 07:32:37;;;;;;;;;;;;;;;;;;5073543;28;19904;-68
2021/12/08 07:35:03;;;;;;;;;;;;;;;;;;5085741;28;19927;-68
2021/12/08 07:37:29;;;;;;;;;;;;;;;;;;5082419;28;19915;-68
2021/12/08 07:39:57;;;;;;;;;;;;;;;;;;5080311;28;19915;-69
2021/12/08 07:42:23;;;;;;;;;;;;;;;;;;5070986;28;19920;-68
2021/12/08 07:44:49;;;;;;;;;;;;;;;;;;5061614;28;19958;-68
2021/12/08 07:47:15;;;;;;;;;;;;;;;;;;5052298;28;19944;-68
2021/12/08 07:49:41;;;;;;;;;;;;;;;;;;5052149;28;19995;-67
2021/12/08 07:52:07;;;;;;;;;;;;;;;;;;5052115;28;19909;-66
2021/12/08 07:54:33;;;;;;;;;;;;;;;;;;5059324;28;19973;-66
2021/12/08 07:57:00;;;;;;;;;;;5.10;99.90;;;;;;5084527;28;20394;-66
2021/12/08 07:59:26;;;;;;;;;;;5.10;99.90;;;;;;5073802;28;19916;-66
2021/12/08 08:01:53;;;;;;;;;;;5.10;99.90;;;;;;5083433;28;19906;-66
2021/12/08 08:04:20;;;;;;;;;;;5.30;99.90;;;;;;5077445;28;19956;-66
2021/12/08 08:06:47;;;;;;;;;;;5.30;99.90;;;;;;5071966;28;19998;-67
2021/12/08 08:09:17;;;;;;;;;;;5.30;99.90;;;;;;5076108;28;19919;-67
2021/12/08 08:11:47;;;;;;;;;;;5.10;99.90;;;;;;5062231;28;19912;-67
2021/12/08 08:14:15;;;;;;;;;;;;;;;;;;5069047;28;19912;-67
2021/12/08 08:16:41;;;;;;;;;;;;;;;;;;5085547;28;20379;-67
2021/12/08 08:19:12;;;;;;;;;;;;;;;;;;5064323;28;19908;-67
2021/12/08 08:21:38;;;;;;;;;;;;;;;;;;5081467;28;20380;-67
2021/12/08 08:24:04;;;;;;;;;;;;;;;;;;5087256;28;19904;-67
2021/12/08 08:26:30;;;;;;;;;;;;;;;;;;5070730;28;19936;-67
2021/12/08 08:28:58;;;;;;;;;;;;;;;;;;5075839;28;19914;-67
2021/12/08 08:31:24;;;;;;;;;;;;;;;;;;5071356;28;20431;-67
2021/12/08 08:33:50;;;;;;;;;;;;;;;;;;5091527;28;19943;-67
2021/12/08 08:36:16;;;;;;;;;;;;;;;;;;5079931;28;20294;-66
2021/12/08 08:38:42;;;;;;;;;;;;;;;;;;5079878;28;19908;-67
2021/12/08 08:41:08;;;;;;;;;;;;;;;;;;5071411;28;19916;-66
2021/12/08 08:43:37;;;;;;;;;;;;;;;;;;5077758;28;20364;-66
2021/12/08 08:46:07;;;;;;;;;;;;;;;;;;5074922;28;20026;-68
2021/12/08 08:48:33;;;;;;;;;;;;;;;;;;5082629;28;20053;-67
2021/12/08 08:50:59;;;;;;;;;;;;;;;;;;5084743;28;19938;-68
2021/12/08 08:53:26;;;;;;;;;;;;;;;;;;5077908;28;19945;-67
2021/12/08 08:55:52;;;;;;;;;;;;;;;;;;5076569;28;19903;-70
2021/12/08 08:58:18;;;;;;;;;;;;;;;;;;5088787;28;19911;-69
2021/12/08 09:00:44;;;;;;;;;;;;;;;;;;5084873;28;19905;-70
2021/12/08 09:03:10;;;;;;;;;;;;;;;;;;5070402;28;19950;-69
2021/12/08 09:05:35;;;;;;;;;;;;;;;;;;5070008;28;19917;-70
2021/12/08 09:08:01;;;;;;;;;;;;;;;;;;5083437;28;19978;-69
2021/12/08 09:10:27;;;;;;;;;;;;;;;;;;5069543;28;20249;-69
2021/12/08 09:12:53;;;;;;;;;;;;;;;;;;5074161;28;19912;-73
2021/12/08 09:15:19;;;;;;;;;;;;;;;;;;5086049;28;20364;-72
2021/12/08 09:17:45;;;;;;;;;;;;;;;;;;5079450;28;19981;-72
2021/12/08 09:20:11;;;;;;;;;;;;;;;;;;5071100;28;19923;-72
2021/12/08 09:22:37;;;;;;;;;;;;;;;;;;5085350;28;19904;-70
2021/12/08 09:25:03;;;;;;;;;;;;;;;;;;5091678;28;20474;-69
2021/12/08 09:27:29;;;;;;;;;;;;;;;;;;5054132;28;19909;-72
2021/12/08 09:29:57;;;;;;;;;;;;;;;;;;5054657;28;20426;-71
2021/12/08 09:32:24;;;;;;;;;;;;;;;;;;5092416;28;19991;-72
2021/12/08 09:34:57;;;;;;;;;;;;;;;;;;5082541;28;19947;-72
2021/12/08 09:37:22;;;;;;;;;;;;;;;;;;5066176;28;20446;-71
2021/12/08 09:39:48;;;;;;;;;;;;;;;;;;5065875;28;19908;-72
2021/12/08 09:42:14;;;;;;;;;;;;;;;;;;5064814;28;19962;-72
2021/12/08 09:44:40;;;;;;;;;;;;;;;;;;5054696;28;19932;-72
2021/12/08 09:47:06;;;;;;;;;;;;;;;;;;5073354;28;19913;-73
2021/12/08 09:49:33;;;;;;;;;;;;;;;;;;5069319;28;19994;-71
2021/12/08 09:51:59;;;;;;;;;;;;;;;;;;5074233;28;19904;-72
2021/12/08 09:54:25;;;;;;;;;;;;;;;;;;5073222;28;19965;-72
2021/12/08 09:56:52;;;;;;;;;;;;;;;;;;5074889;28;19909;-70
2021/12/08 09:59:18;;;;;;;;;;;;;;;;;;5068385;28;19909;-71
2021/12/08 10:01:44;;;;;;;;;;;;;;;;;;5080324;28;19911;-71
2021/12/08 10:04:10;;;;;;;;;;;;;;;;;;5071028;28;19908;-73
2021/12/08 10:06:36;;;;;;;;;;;;;;;;;;5083643;28;19963;-72
2021/12/08 10:09:02;;;;;;;;;;;;;;;;;;5055106;28;20321;-73
2021/12/08 10:11:28;;;;;;;;;;;;;;;;;;5066761;28;19908;-72
2021/12/08 10:13:54;;;;;;;;;;;;;;;;;;5073298;28;19904;-72
2021/12/08 10:16:20;;;;;;;;;;;;;;;;;;5075791;28;19943;-69
2021/12/08 10:18:45;;;;;;;;;;;;;;;;;;5073763;28;19904;-68
2021/12/08 10:21:13;;;;;;;;;;;;;;;;;;5067136;28;19904;-69
2021/12/08 10:23:39;;;;;;;;;;;;;;;;;;5092124;28;19952;-69
2021/12/08 10:26:05;;;;;;;;;;;;;;;;;;5078688;28;19995;-69
2021/12/08 10:28:31;;;;;;;;;;;;;;;;;;5078722;28;20338;-69
2021/12/08 10:30:57;;;;;;;;;;;;;;;;;;5078806;28;19909;-70
2021/12/08 10:33:23;;;;;;;;;;;;;;;;;;5071901;28;19912;-69
2021/12/08 10:36:01;;;;;;;;;;;;;;;;;;5080255;28;19950;-69
2021/12/08 10:38:27;;;;;;;;;;;;;;;;;;5071680;28;19915;-69
2021/12/08 10:40:52;;;;;;;;;;;;;;;;;;5080223;28;19916;-69
2021/12/08 10:43:18;;;;;;;;;;;;;;;;;;5081883;28;20330;-69
2021/12/08 10:45:45;;;;;;;;;;;;;;;;;;5079639;28;19913;-69
2021/12/08 10:48:11;;;;;;;;;;;;;;;;;;5070349;28;20428;-69
2021/12/08 10:56:06;;;;;;;;;;;;;;;;;;5081773;28;19950;-68
2021/12/08 10:58:32;;;;;;;;;;;;;;;;;;5080050;28;19904;-68
2021/12/08 11:00:58;;;;;;;;;;;;;;;;;;5078285;28;19921;-68
2021/12/08 11:03:24;;;;;;;;;;;;;;;;;;5075168;28;19907;-68
2021/12/08 11:05:50;;;;;;;;;;;;;;;;;;5072595;28;20015;-67
2021/12/08 11:08:16;;;;;;;;;;;;;;;;;;5056926;28;19980;-67
2021/12/08 11:10:42;;;;;;;;;;;;;;;;;;5052571;28;20277;-67
2021/12/08 11:13:08;;;;;;;;;;;;;;;;;;5066864;28;19941;-67
2021/12/08 11:15:34;;;;;;;;;;;;;;;;;;5078684;28;19908;-67
2021/12/08 11:18:00;;;;;;;;;;;;;;;;;;5075959;28;20297;-68
2021/12/08 11:20:31;;;;;;;;;;;;;;;;;;5091999;28;19912;-67
2021/12/08 11:22:57;;;;;;;;;;;;;;;;;;5074733;28;19909;-67
2021/12/08 11:25:23;;;;;;;;;;;;;;;;;;5089138;28;19919;-67
2021/12/08 11:27:49;;;;;;;;;;;;;;;;;;5088363;28;19908;-67
2021/12/08 11:30:15;;;;;;;;;;;;;;;;;;5085867;28;19916;-67
2021/12/08 11:32:41;;;;;;;;;;;;;;;;;;5079747;28;20304;-68
2021/12/08 11:35:07;;;;;;;;;;;;;;;;;;5070796;28;19916;-67
2021/12/08 11:37:34;;;;;;;;;;;;;;;;;;5052068;28;19920;-68
2021/12/08 11:40:02;;;;;;;;;;;;;;;;;;5065469;28;19998;-68
2021/12/08 11:42:33;;;;;;;;;;;5.10;99.90;;;;;;5073809;28;19961;-67
2021/12/08 11:45:00;;;;;;;;;;;7.60;99.90;;;;;;4717294;28;10000107;-67
2021/12/08 11:47:31;;;;;;;;;;;7.50;99.90;;;;;;5070196;28;19920;-66
2021/12/08 11:49:58;;;;;;;;;;;7.50;99.90;;;;;;5082121;28;20648;-68
2021/12/08 11:52:29;;;;;;;;;;;7.60;99.90;;;;;;5079150;28;20419;-67
2021/12/08 11:55:00;;;;;;;;;;;7.70;99.90;;;;;;5088747;28;20007;-66
2021/12/08 11:57:39;;;;;;;;;;;7.70;99.90;;;;;;5077461;28;19927;-67
2021/12/08 12:00:10;;;;;;;;;;;7.70;99.90;;;;;;5079309;28;20013;-67
2021/12/08 12:02:36;;;;;;;;;;;7.70;99.90;;;;;;5079565;28;19918;-67
2021/12/08 12:05:04;;;;;;;;;;;7.80;99.90;;;;;;5088808;28;19907;-67
2021/12/08 12:07:29;;;;;;;;;;;7.70;99.90;;;;;;5076933;28;19996;-67
2021/12/08 12:09:55;;;;;;;;;;;7.90;99.90;;;;;;5080389;28;20002;-66
2021/12/08 12:12:20;;;;;;;;;;;8.00;99.90;;;;;;5061890;28;19908;-67
2021/12/08 12:14:47;;;;;;;;;;;8.20;99.90;;;;;;5072127;28;19912;-66
2021/12/08 12:17:13;;;;;;;;;;;8.20;99.90;;;;;;5074807;28;19935;-67
2021/12/08 12:19:48;;;;;;;;;;;8.10;99.90;;;;;;5089138;28;19908;-66
2021/12/08 12:22:29;;;;;;;;;;;8.00;99.90;;;;;;5074886;28;19909;-66
2021/12/08 12:24:55;;;;;;;;;;;;;;;;;;5081496;28;19904;-66
2021/12/08 12:27:20;;;;;;;;;;;;;;;;;;5080290;28;19935;-68
2021/12/08 12:29:47;;;;;;;;;;;;;;;;;;5063195;28;20388;-68
2021/12/08 12:32:17;;;;;;;;;;;;;;;;;;5076776;28;19954;-67
2021/12/08 12:34:42;;;;;;;;;;;;;;;;;;5075986;28;19912;-67
2021/12/08 12:37:08;;;;;;;;;;;;;;;;;;5097310;22;19974;-64
2021/12/08 12:39:34;;;;;;;;;;;;;;;;;;5070622;28;19998;-67
2021/12/08 12:42:00;;;;;;;;;;;;;;;;;;5070218;28;19908;-67
2021/12/08 12:44:26;;;;;;;;;;;;;;;;;;5073115;28;20342;-67
2021/12/08 12:46:52;;;;;;;;;;;;;;;;;;5071831;28;20295;-65
2021/12/08 12:49:18;;;;;;;;;;;;;;;;;;5072130;28;19919;-67
2021/12/08 12:51:44;;;;;;;;;;;;;;;;;;5071498;28;20345;-67
2021/12/08 12:54:10;;;;;;;;;;;;;;;;;;5073013;28;20007;-66
2021/12/08 12:56:36;;;;;;;;;;;;;;;;;;5071955;28;19909;-68
2021/12/08 12:59:01;;;;;;;;;;;;;;;;;;5074217;28;19912;-68
2021/12/08 13:01:28;;;;;;;;;;;;;;;;;;5071452;28;19911;-67
2021/12/08 13:03:54;;;;;;;;;;;;;;;;;;5072167;28;19914;-67
2021/12/08 13:06:20;;;;;;;;;;;;;;;;;;5073446;28;20394;-67
2021/12/08 13:08:47;;;;;;;;;;;;;;;;;;5073478;28;19995;-68
2021/12/08 13:11:13;;;;;;;;;;;;;;;;;;5071359;28;19955;-67
2021/12/08 13:13:38;;;;;;;;;;;;;;;;;;5072075;28;19905;-68
2021/12/08 13:16:04;;;;;;;;;;;;;;;;;;5073694;28;19968;-68
2021/12/08 13:18:31;;;;;;;;;;;;;;;;;;5072074;28;20265;-67
2021/12/08 13:20:59;;;;;;;;;;;;;;;;;;5071874;28;19908;-69
2021/12/08 13:23:27;;;;;;;;;;;;;;;;;;5070790;28;20463;-67
2021/12/08 13:28:21;;;;;;;;;;;;;;;;;;5073287;28;19915;-66
2021/12/08 13:30:47;;;;;;;;;;;;;;;;;;5073764;28;20002;-67
2021/12/08 13:33:19;;;;;;;;;;;;;;;;;;5067339;28;20387;-69
2021/12/08 13:35:44;;;;;;;;;;;;;;;;;;5071525;28;20373;-67
2021/12/08 13:38:10;;;;;;;;;;;;;;;;;;5071418;28;19922;-66
2021/12/08 13:40:36;;;;;;;;;;;;;;;;;;5071682;28;19930;-66
2021/12/08 13:43:05;;;;;;;;;;;;;;;;;;5070199;28;19912;-67
2021/12/08 13:45:31;;;;;;;;;;;;;;;;;;5067090;28;19912;-65
2021/12/08 13:47:57;;;;;;;;;;;;;;;;;;5070621;28;19943;-67
2021/12/08 13:50:24;;;;;;;;;;;8.00;99.90;;;;;;5069890;28;20307;-66
2021/12/08 13:53:10;;;;;;;;;;;9.00;99.90;;;;;;5072342;28;19904;-67
2021/12/08 13:55:38;;;;;;;;;;;;;;;;;;5072811;28;19904;-66
2021/12/08 13:58:07;;;;;;;;;;;9.30;99.90;;;;;;5073686;28;19916;-66
2021/12/08 14:00:35;;;;;;;;;;;9.90;99.90;;;;;;5071999;28;19997;-66
2021/12/08 14:03:06;;;;;;;;;;;9.80;99.90;;;;;;5070088;28;19916;-67
2021/12/08 14:05:33;;;;;;;;;;;9.90;99.90;;;;;;5067185;28;19923;-67
2021/12/08 14:08:02;;;;;;;;;;;9.90;99.90;;;;;;5075454;28;20233;-67
2021/12/08 14:10:34;;;;;;;;;;;9.80;99.90;;;;;;5075423;28;20364;-66
2021/12/08 14:13:10;;;;;;;;;;;10.00;99.90;;;;;;5074141;28;19909;-65
2021/12/08 14:15:37;;;;;;;;;;;9.60;99.90;;;;;;5059439;28;19909;-66
2021/12/08 14:18:18;;;;;;;;;;;9.00;99.90;;;;;;5074373;28;19911;-66
2021/12/08 14:20:44;;;;;;;;;;;;;;;;;;5068091;28;19908;-69
2021/12/08 14:23:10;;;;;;;;;;;;;;;;;;5073432;28;19904;-68
2021/12/08 14:25:40;;;;;;;;;;;8.90;99.90;;;;;;5073653;28;20265;-68
2021/12/08 14:28:25;;;;;;;;;;;8.30;99.90;;;;;;5075388;28;19905;-67
2021/12/08 14:30:51;;;;;;;;;;;8.10;99.90;;;;;;5075728;28;19967;-67
2021/12/08 14:33:21;;;;;;;;;;;7.80;99.90;;;;;;5074947;28;19936;-68
2021/12/08 14:35:56;;;;;;;;;;;7.70;99.90;;;;;;5074718;28;20010;-66
2021/12/08 14:38:22;;;;;;;;;;;;;;;;;;5074709;28;19919;-67
2021/12/08 14:40:49;;;;;;;;;;;;;;;;;;5075142;28;19905;-67
2021/12/08 14:43:15;;;;;;;;;;;;;;;;;;5074389;28;19908;-68
2021/12/08 14:45:40;;;;;;;;;;;;;;;;;;5073691;28;20394;-67
2021/12/08 14:48:06;;;;;;;;;;;;;;;;;;4370470;28;10000756;-66
2021/12/08 14:50:32;;;;;;;;;;;;;;;;;;5070592;28;19955;-67
2021/12/08 14:52:58;;;;;;;;;;;;;;;;;;5063990;28;19957;-66
2021/12/08 14:55:24;;;;;;;;;;;;;;;;;;5062974;28;19905;-66
2021/12/08 14:57:52;;;;;;;;;;;;;;;;;;5067554;28;19913;-67
2021/12/08 15:00:19;;;;;;;;;;;;;;;;;;5061834;28;19912;-67
2021/12/08 15:02:44;;;;;;;;;;;;;;;;;;5067495;28;19916;-68
2021/12/08 15:05:10;;;;;;;;;;;;;;;;;;5062909;28;20673;-67
2021/12/08 15:07:36;;;;;;;;;;;;;;;;;;5066198;28;20019;-67
2021/12/08 15:10:02;;;;;;;;;;;;;;;;;;5066157;28;20287;-66
2021/12/08 15:12:28;;;;;;;;;;;;;;;;;;5065339;28;19915;-67
2021/12/08 15:14:54;;;;;;;;;;;;;;;;;;5067766;28;20368;-69
2021/12/08 15:17:20;;;;;;;;;;;;;;;;;;5064163;28;20005;-67
2021/12/08 15:19:46;;;;;;;;;;;;;;;;;;5066119;28;19931;-65
2021/12/08 15:22:12;;;;;;;;;;;;;;;;;;5065287;28;20012;-67
2021/12/08 15:24:38;;;;;;;;;;;;;;;;;;5065280;28;20340;-67
2021/12/08 15:27:04;;;;;;;;;;;;;;;;;;5065041;28;19973;-66
2021/12/08 15:29:30;;;;;;;;;;;;;;;;;;5064445;28;19912;-66
2021/12/08 15:31:57;;;;;;;;;;;;;;;;;;5061284;28;19966;-67
2021/12/08 15:34:26;;;;;;;;;;;;;;;;;;5063672;28;19908;-67
2021/12/08 15:36:52;;;;;;;;;;;;;;;;;;5071801;28;19912;-67
2021/12/08 15:39:18;;;;;;;;;;;;;;;;;;5071565;28;19913;-67
2021/12/08 15:41:44;;;;;;;;;;;;;;;;;;5068656;28;19951;-68
2021/12/08 15:44:09;;;;;;;;;;;;;;;;;;5064881;28;20413;-67
2021/12/08 15:46:35;;;;;;;;;;;;;;;;;;5063923;28;19962;-68
2021/12/08 15:49:03;;;;;;;;;;;;;;;;;;5062035;28;19912;-67
2021/12/08 15:51:29;;;;;;;;;;;;;;;;;;5063692;28;19954;-66
2021/12/08 15:53:54;;;;;;;;;;;;;;;;;;5063634;28;19908;-67
2021/12/08 15:56:20;;;;;;;;;;;;;;;;;;5072664;28;20225;-67
2021/12/08 15:58:46;;;;;;;;;;;;;;;;;;5073957;28;20011;-65
2021/12/08 16:01:12;;;;;;;;;;;;;;;;;;5072985;28;19958;-67
2021/12/08 16:03:38;;;;;;;;;;;;;;;;;;5069295;28;19909;-67
2021/12/08 16:06:04;;;;;;;;;;;;;;;;;;5077304;28;19916;-67
2021/12/08 16:08:30;;;;;;;;;;;;;;;;;;5065932;28;19909;-67
2021/12/08 16:10:56;;;;;;;;;;;;;;;;;;5066587;28;19914;-66
2021/12/08 16:13:22;;;;;;;;;;;;;;;;;;5065369;28;19909;-68
2021/12/08 16:15:48;;;;;;;;;;;;;;;;;;5064267;28;19958;-67
2021/12/08 16:18:14;;;;;;;;;;;;;;;;;;5066619;28;19905;-67
2021/12/08 16:20:41;;;;;;;;;;;;;;;;;;5065920;28;20003;-67
2021/12/08 16:23:07;;;;;;;;;;;;;;;;;;5067620;28;20329;-66
2021/12/08 16:25:33;;;;;;;;;;;;;;;;;;5069557;28;19911;-67
2021/12/08 16:27:59;;;;;;;;;;;;;;;;;;5065897;28;19920;-69
2021/12/08 16:30:25;;;;;;;;;;;;;;;;;;5063343;28;19904;-66
2021/12/08 16:32:51;;;;;;;;;;;;;;;;;;5072086;28;19939;-67
2021/12/08 16:35:17;;;;;;;;;;;;;;;;;;5072510;28;19918;-68
2021/12/08 16:37:43;;;;;;;;;;;;;;;;;;5071930;28;19920;-68
2021/12/08 16:45:19;;;;;;;;;;;;;;;;;;5073388;28;19973;-67
2021/12/08 16:47:45;;;;;;;;;;;;;;;;;;5072154;28;19909;-67
2021/12/08 16:50:14;;;;;;;;;;;;;;;;;;5073425;28;19908;-68
2021/12/08 16:52:39;;;;;;;;;;;;;;;;;;5071012;28;19934;-67
2021/12/08 16:55:05;;;;;;;;;;;;;;;;;;5073803;28;19905;-68
2021/12/08 16:57:33;;;;;;;;;;;;;;;;;;5072924;28;20010;-67
2021/12/08 16:59:59;;;;;;;;;;;;;;;;;;5071768;28;19908;-68
2021/12/08 17:02:25;;;;;;;;;;;;;;;;;;4718639;28;10000000;-67
2021/12/08 17:04:51;;;;;;;;;;;;;;;;;;5070607;28;20032;-67
2021/12/08 17:07:17;;;;;;;;;;;;;;;;;;5065877;28;19916;-67
2021/12/08 17:09:43;;;;;;;;;;;;;;;;;;5065945;28;19913;-67
2021/12/08 17:12:09;;;;;;;;;;;;;;;;;;5058628;28;19916;-66
2021/12/08 17:14:35;;;;;;;;;;;;;;;;;;5059420;28;19923;-64
2021/12/08 17:17:01;;;;;;;;;;;;;;;;;;5060279;28;19913;-67